Auburn Lake Trails, California
Current Conditions -  °F | °C
As of 3:55 AM on Saturday 01 Nov 2014 (Local Time) from KAUN Reporting Station
Broken Clouds Broken Clouds  
Wind Chill: 46°   Ceiling: 2500
Heat Index: 48°   Visibility: 3mi
Dew Point: 48°   Wind: 6mph
Humidity: 100%   Direction: 140°SE
Pressure: 29.72"   Gusts: NA
Location:  38.8932°N, 120.985°W
Report Text: KAUN 011055Z AUTO 14005KT 3SM FEW003 SCT016 BKN025 09/09 A2972 RMK AO1 P0021
Loading
Personal Weather Stations






























Interactive Weather Map
Tropical Storm Tracking
New forecast layout! Learn more

10-Day Weather Forecast

Advertisements
Track Severe Weather on mobile